Time,TemperatureF,DewpointF,PressureIn,WindDirection,WindDirectionDegrees,WindSpeedMPH,WindSpeedGustMPH,Humidity,HourlyPrecipIn,Conditions,Clouds,dailyrainin,SolarRadiationWatts/m^2,SoftwareType,DateUTC
2013-04-07 00:00:00,56.1,53.2,30.04,SE,139,0.0,0.0,90,0.00,,,0.00,0,Wunderground v.1.15,2013-04-07 05:00:00,
2013-04-07 00:06:00,56.0,53.4,30.04,SE,140,0.0,0.0,91,0.00,,,0.00,0,Wunderground v.1.15,2013-04-07 05:06:00,
2013-04-07 00:12:00,55.9,53.3,30.04,SE,142,0.0,0.0,91,0.00,,,0.00,0,Wunderground v.1.15,2013-04-07 05:12:00,
2013-04-07 00:17:00,55.7,53.1,30.03,SE,142,0.0,0.0,91,0.00,,,0.00,0,Wunderground v.1.15,2013-04-07 05:17:00,
2013-04-07 00:23:00,55.6,53.3,30.04,SE,142,0.0,0.0,92,0.00,,,0.00,0,Wunderground v.1.15,2013-04-07 05:23:00,
2013-04-07 00:28:00,55.6,53.3,30.04,SE,143,0.0,0.0,92,0.00,,,0.00,0,Wunderground v.1.15,2013-04-07 05:28:00,
2013-04-07 00:34:00,55.5,53.2,30.04,SE,142,0.0,0.0,92,0.00,,,0.00,0,Wunderground v.1.15,2013-04-07 05:34:00,
2013-04-07 00:40:00,55.4,53.1,30.04,SE,143,0.0,0.0,92,0.00,,,0.00,0,Wunderground v.1.15,2013-04-07 05:40:00,
2013-04-07 00:46:00,55.3,53.0,30.04,SE,144,0.0,0.0,92,0.00,,,0.00,0,Wunderground v.1.15,2013-04-07 05:46:00,
2013-04-07 00:52:00,55.1,53.1,30.04,SE,144,0.0,0.0,93,0.00,,,0.00,0,Wunderground v.1.15,2013-04-07 05:52:00,
2013-04-07 00:59:00,55.0,53.0,30.04,SE,144,0.0,0.0,93,0.00,,,0.00,0,Wunderground v.1.15,2013-04-07 05:59:00,
2013-04-07 01:05:00,54.9,52.9,30.03,SE,144,0.0,0.0,93,0.00,,,0.00,0,Wunderground v.1.15,2013-04-07 06:05:00,
2013-04-07 01:10:00,54.8,53.1,30.03,SE,144,0.0,0.0,94,0.00,,,0.00,0,Wunderground v.1.15,2013-04-07 06:10:00,
2013-04-07 01:15:00,54.7,53.0,30.03,SE,144,0.0,0.0,94,0.00,,,0.00,0,Wunderground v.1.15,2013-04-07 06:15:00,
2013-04-07 01:22:00,54.6,52.9,30.03,SE,144,0.0,0.0,94,0.00,,,0.00,0,Wunderground v.1.15,2013-04-07 06:22:00,
2013-04-07 01:27:00,54.5,52.8,30.03,SE,144,0.0,0.0,94,0.00,,,0.00,0,Wunderground v.1.15,2013-04-07 06:27:00,
2013-04-07 01:33:00,54.4,52.7,30.02,SE,144,0.0,0.0,94,0.00,,,0.00,0,Wunderground v.1.15,2013-04-07 06:33:00,
2013-04-07 01:38:00,54.3,52.9,30.02,SE,144,0.0,0.0,95,0.00,,,0.00,0,Wunderground v.1.15,2013-04-07 06:38:00,
2013-04-07 01:43:00,54.3,52.9,30.02,SE,144,0.0,0.0,95,0.00,,,0.00,0,Wunderground v.1.15,2013-04-07 06:43:00,
2013-04-07 01:48:00,54.2,52.8,30.03,SE,144,0.0,0.0,95,0.00,,,0.00,0,Wunderground v.1.15,2013-04-07 06:48:00,
2013-04-07 01:54:00,54.2,52.8,30.02,SE,144,0.0,2.0,95,0.00,,,0.00,0,Wunderground v.1.15,2013-04-07 06:54:00,
2013-04-07 01:59:00,54.1,52.7,30.02,SE,143,0.0,2.0,95,0.00,,,0.00,0,Wunderground v.1.15,2013-04-07 06:59:00,
2013-04-07 02:05:00,54.0,52.6,30.02,SE,143,0.0,0.0,95,0.00,,,0.00,0,Wunderground v.1.15,2013-04-07 07:05:00,
2013-04-07 02:12:00,53.9,52.5,30.02,SE,143,0.0,0.0,95,0.00,,,0.00,0,Wunderground v.1.15,2013-04-07 07:12:00,
2013-04-07 02:17:00,53.7,52.3,30.02,SE,143,0.0,0.0,95,0.00,,,0.00,0,Wunderground v.1.15,2013-04-07 07:17:00,
2013-04-07 02:23:00,53.6,52.5,30.03,SE,143,0.0,0.0,96,0.00,,,0.00,0,Wunderground v.1.15,2013-04-07 07:23:00,
2013-04-07 02:28:00,53.6,52.2,30.03,SE,143,0.0,0.0,95,0.00,,,0.00,0,Wunderground v.1.15,2013-04-07 07:28:00,
2013-04-07 02:33:00,53.4,52.0,30.03,SE,143,0.0,0.0,95,0.00,,,0.00,0,Wunderground v.1.15,2013-04-07 07:33:00,
2013-04-07 02:38:00,53.3,51.9,30.02,SE,143,0.0,0.0,95,0.00,,,0.00,0,Wunderground v.1.15,2013-04-07 07:38:00,
2013-04-07 02:44:00,53.2,52.1,30.02,SE,143,0.0,0.0,96,0.00,,,0.00,0,Wunderground v.1.15,2013-04-07 07:44:00,
2013-04-07 02:49:00,53.2,52.1,30.02,SE,143,0.0,0.0,96,0.00,,,0.00,0,Wunderground v.1.15,2013-04-07 07:49:00,
2013-04-07 02:55:00,53.2,52.1,30.02,SE,143,0.0,0.0,96,0.00,,,0.00,0,Wunderground v.1.15,2013-04-07 07:55:00,
2013-04-07 03:00:00,53.3,52.2,30.02,SE,143,0.0,0.0,96,0.00,,,0.00,0,Wunderground v.1.15,2013-04-07 08:00:00,
2013-04-07 03:05:00,53.3,52.2,30.02,SE,143,0.0,0.0,96,0.00,,,0.00,0,Wunderground v.1.15,2013-04-07 08:05:00,
2013-04-07 03:11:00,53.4,52.3,30.02,SE,143,0.0,0.0,96,0.00,,,0.00,0,Wunderground v.1.15,2013-04-07 08:11:00,
2013-04-07 03:16:00,53.6,52.8,30.01,SE,143,0.0,0.0,97,0.00,,,0.00,0,Wunderground v.1.15,2013-04-07 08:16:00,
2013-04-07 03:22:00,53.7,52.9,30.02,SE,143,0.0,0.0,97,0.00,,,0.00,0,Wunderground v.1.15,2013-04-07 08:22:00,
2013-04-07 03:27:00,53.9,53.1,30.01,SE,143,0.0,0.0,97,0.00,,,0.00,0,Wunderground v.1.15,2013-04-07 08:27:00,
2013-04-07 03:33:00,54.0,53.2,30.01,SE,143,0.0,0.0,97,0.00,,,0.00,0,Wunderground v.1.15,2013-04-07 08:33:00,
2013-04-07 03:39:00,54.0,53.2,30.01,SE,143,0.0,0.0,97,0.00,,,0.00,0,Wunderground v.1.15,2013-04-07 08:39:00,
2013-04-07 03:44:00,54.0,53.2,30.01,SE,143,0.0,0.0,97,0.00,,,0.00,0,Wunderground v.1.15,2013-04-07 08:44:00,
2013-04-07 03:49:00,54.0,53.2,30.01,SE,143,0.0,0.0,97,0.00,,,0.00,0,Wunderground v.1.15,2013-04-07 08:49:00,
2013-04-07 03:55:00,53.9,53.1,30.01,SE,143,0.0,0.0,97,0.00,,,0.00,0,Wunderground v.1.15,2013-04-07 08:55:00,
2013-04-07 04:00:00,53.8,53.0,30.01,SE,143,0.0,0.0,97,0.00,,,0.00,0,Wunderground v.1.15,2013-04-07 09:00:00,
2013-04-07 04:05:00,53.7,52.9,30.01,SE,143,0.0,0.0,97,0.00,,,0.00,0,Wunderground v.1.15,2013-04-07 09:05:00,
2013-04-07 04:11:00,53.6,52.8,30.01,SE,143,0.0,0.0,97,0.00,,,0.00,0,Wunderground v.1.15,2013-04-07 09:11:00,
2013-04-07 04:16:00,53.5,52.7,30.01,SE,143,0.0,0.0,97,0.00,,,0.00,0,Wunderground v.1.15,2013-04-07 09:16:00,
2013-04-07 04:22:00,53.4,52.6,30.01,SE,143,0.0,0.0,97,0.00,,,0.00,0,Wunderground v.1.15,2013-04-07 09:22:00,
2013-04-07 04:28:00,53.3,52.5,30.00,SE,143,0.0,0.0,97,0.00,,,0.00,0,Wunderground v.1.15,2013-04-07 09:28:00,
2013-04-07 04:34:00,53.2,52.4,30.00,SE,143,0.0,0.0,97,0.00,,,0.00,0,Wunderground v.1.15,2013-04-07 09:34:00,
2013-04-07 04:39:00,53.2,52.4,30.00,SE,143,0.0,0.0,97,0.00,,,0.00,0,Wunderground v.1.15,2013-04-07 09:39:00,
2013-04-07 04:44:00,53.1,52.3,30.00,SE,143,0.0,0.0,97,0.00,,,0.00,0,Wunderground v.1.15,2013-04-07 09:44:00,
2013-04-07 04:50:00,53.1,52.3,30.01,SE,143,0.0,0.0,97,0.00,,,0.00,0,Wunderground v.1.15,2013-04-07 09:50:00,
2013-04-07 04:55:00,53.2,52.4,30.01,SE,143,0.0,0.0,97,0.00,,,0.00,0,Wunderground v.1.15,2013-04-07 09:55:00,
2013-04-07 05:01:00,53.4,52.6,30.01,SE,143,0.0,0.0,97,0.00,,,0.00,0,Wunderground v.1.15,2013-04-07 10:01:00,
2013-04-07 05:07:00,53.5,52.7,30.01,SE,143,0.0,0.0,97,0.00,,,0.00,0,Wunderground v.1.15,2013-04-07 10:07:00,
2013-04-07 05:12:00,53.5,52.7,30.01,SE,143,0.0,0.0,97,0.00,,,0.00,0,Wunderground v.1.15,2013-04-07 10:12:00,
2013-04-07 05:18:00,53.6,52.8,30.01,SE,143,0.0,0.0,97,0.00,,,0.00,0,Wunderground v.1.15,2013-04-07 10:18:00,
2013-04-07 05:23:00,53.7,52.9,30.01,SE,143,0.0,0.0,97,0.00,,,0.00,0,Wunderground v.1.15,2013-04-07 10:23:00,
2013-04-07 05:29:00,53.9,53.1,30.01,SE,143,0.0,0.0,97,0.00,,,0.00,0,Wunderground v.1.15,2013-04-07 10:29:00,
2013-04-07 05:35:00,53.9,53.1,30.02,SE,143,0.0,0.0,97,0.00,,,0.00,0,Wunderground v.1.15,2013-04-07 10:35:00,
2013-04-07 05:40:00,54.0,53.2,30.02,SE,142,0.0,2.0,97,0.00,,,0.00,0,Wunderground v.1.15,2013-04-07 10:40:00,
2013-04-07 05:45:00,54.0,53.2,30.02,SE,138,0.0,3.0,97,0.00,,,0.00,0,Wunderground v.1.15,2013-04-07 10:45:00,
2013-04-07 05:50:00,54.0,53.2,30.02,SE,133,0.0,0.0,97,0.00,,,0.00,0,Wunderground v.1.15,2013-04-07 10:50:00,
2013-04-07 05:56:00,54.0,53.2,30.02,SE,138,0.0,0.0,97,0.00,,,0.00,0,Wunderground v.1.15,2013-04-07 10:56:00,
2013-04-07 06:01:00,54.1,53.3,30.02,SE,137,0.0,0.0,97,0.00,,,0.00,0,Wunderground v.1.15,2013-04-07 11:01:00,
2013-04-07 06:07:00,54.2,53.4,30.02,SE,132,0.0,0.0,97,0.00,,,0.00,0,Wunderground v.1.15,2013-04-07 11:07:00,
2013-04-07 06:12:00,54.2,53.4,30.02,SE,132,0.0,0.0,97,0.00,,,0.00,0,Wunderground v.1.15,2013-04-07 11:12:00,
2013-04-07 06:18:00,54.2,53.4,30.03,SE,132,0.0,0.0,97,0.00,,,0.00,0,Wunderground v.1.15,2013-04-07 11:18:00,
2013-04-07 06:24:00,54.2,53.4,30.03,SE,132,0.0,0.0,97,0.00,,,0.00,0,Wunderground v.1.15,2013-04-07 11:24:00,
2013-04-07 06:29:00,54.2,53.4,30.03,SE,132,0.0,0.0,97,0.00,,,0.00,0,Wunderground v.1.15,2013-04-07 11:29:00,
2013-04-07 06:37:00,54.2,53.4,30.04,SE,132,0.0,0.0,97,0.00,,,0.00,0,Wunderground v.1.15,2013-04-07 11:37:00,
2013-04-07 06:42:00,54.2,53.4,30.04,SE,132,0.0,0.0,97,0.00,,,0.00,0,Wunderground v.1.15,2013-04-07 11:42:00,
2013-04-07 06:48:00,54.1,53.3,30.04,SE,132,0.0,0.0,97,0.00,,,0.00,5,Wunderground v.1.15,2013-04-07 11:48:00,
2013-04-07 06:53:00,54.1,53.3,30.04,SE,132,0.0,0.0,97,0.00,,,0.00,11,Wunderground v.1.15,2013-04-07 11:53:00,
2013-04-07 06:59:00,54.1,53.3,30.05,SE,132,0.0,0.0,97,0.00,,,0.00,14,Wunderground v.1.15,2013-04-07 11:59:00,
2013-04-07 07:04:00,54.1,53.3,30.05,SSE,158,0.0,0.0,97,0.00,,,0.00,19,Wunderground v.1.15,2013-04-07 12:04:00,
2013-04-07 07:09:00,54.1,53.3,30.05,SSE,158,0.0,0.0,97,0.00,,,0.00,25,Wunderground v.1.15,2013-04-07 12:09:00,
2013-04-07 07:15:00,54.1,53.3,30.05,SSE,158,0.0,0.0,97,0.00,,,0.00,35,Wunderground v.1.15,2013-04-07 12:15:00,
2013-04-07 07:21:00,54.1,53.3,30.05,SSE,158,0.0,0.0,97,0.00,,,0.00,39,Wunderground v.1.15,2013-04-07 12:21:00,
2013-04-07 07:27:00,54.2,53.6,30.05,SSE,156,0.0,0.0,98,0.00,,,0.00,60,Wunderground v.1.15,2013-04-07 12:27:00,
2013-04-07 07:32:00,54.4,53.6,30.05,SSE,156,0.0,0.0,97,0.00,,,0.00,49,Wunderground v.1.15,2013-04-07 12:32:00,
2013-04-07 07:38:00,54.5,53.7,30.05,SSE,156,0.0,0.0,97,0.00,,,0.00,40,Wunderground v.1.15,2013-04-07 12:38:00,
2013-04-07 07:44:00,54.6,54.0,30.05,SSE,153,0.0,0.0,98,0.00,,,0.00,56,Wunderground v.1.15,2013-04-07 12:44:00,
2013-04-07 07:49:00,55.0,54.4,30.05,SE,143,0.0,3.0,98,0.00,,,0.00,169,Wunderground v.1.15,2013-04-07 12:49:00,
2013-04-07 07:55:00,55.5,54.9,30.05,SE,135,0.0,0.0,98,0.00,,,0.00,169,Wunderground v.1.15,2013-04-07 12:55:00,
2013-04-07 08:01:00,56.0,55.4,30.06,ESE,109,0.0,0.0,98,0.00,,,0.00,213,Wunderground v.1.15,2013-04-07 13:01:00,
2013-04-07 08:06:00,56.4,55.8,30.06,SE,131,0.0,7.0,98,0.00,,,0.00,213,Wunderground v.1.15,2013-04-07 13:06:00,
2013-04-07 08:11:00,56.8,56.0,30.06,East,89,0.0,0.0,97,0.00,,,0.00,98,Wunderground v.1.15,2013-04-07 13:11:00,
2013-04-07 08:17:00,57.2,56.1,30.06,SE,133,1.0,4.0,96,0.00,,,0.00,255,Wunderground v.1.15,2013-04-07 13:17:00,
2013-04-07 08:22:00,57.7,56.3,30.06,SE,136,1.0,1.0,95,0.00,,,0.00,387,Wunderground v.1.15,2013-04-07 13:22:00,
2013-04-07 08:27:00,58.1,56.4,30.06,ESE,108,0.0,1.0,94,0.00,,,0.00,178,Wunderground v.1.15,2013-04-07 13:27:00,
2013-04-07 08:33:00,58.6,56.9,30.06,East,96,1.0,1.0,94,0.00,,,0.00,178,Wunderground v.1.15,2013-04-07 13:33:00,
2013-04-07 08:38:00,59.0,56.7,30.06,SE,138,0.0,1.0,92,0.00,,,0.00,367,Wunderground v.1.15,2013-04-07 13:38:00,
2013-04-07 08:44:00,59.3,56.7,30.06,SE,137,1.0,4.0,91,0.00,,,0.00,221,Wunderground v.1.15,2013-04-07 13:44:00,
2013-04-07 08:49:00,59.8,56.9,30.06,SE,146,1.0,5.0,90,0.00,,,0.00,359,Wunderground v.1.15,2013-04-07 13:49:00,
2013-04-07 08:55:00,60.4,56.8,30.06,ESE,122,1.0,9.0,88,0.00,,,0.00,160,Wunderground v.1.15,2013-04-07 13:55:00,
2013-04-07 09:00:00,60.7,57.1,30.06,South,188,1.0,1.0,88,0.00,,,0.00,269,Wunderground v.1.15,2013-04-07 14:00:00,
2013-04-07 09:07:00,61.5,57.3,30.06,SE,144,0.0,1.0,86,0.00,,,0.00,548,Wunderground v.1.15,2013-04-07 14:07:00,
2013-04-07 09:12:00,62.3,57.7,30.06,South,185,0.0,0.0,85,0.00,,,0.00,494,Wunderground v.1.15,2013-04-07 14:12:00,
2013-04-07 09:17:00,62.9,58.0,30.06,SE,124,0.0,0.0,84,0.00,,,0.00,571,Wunderground v.1.15,2013-04-07 14:17:00,
2013-04-07 09:23:00,63.2,57.6,30.06,South,171,1.0,3.0,82,0.00,,,0.00,557,Wunderground v.1.15,2013-04-07 14:23:00,
2013-04-07 09:28:00,63.6,57.7,30.06,South,184,1.0,3.0,81,0.00,,,0.00,309,Wunderground v.1.15,2013-04-07 14:28:00,
2013-04-07 09:34:00,63.6,57.7,30.06,SSE,168,1.0,1.0,81,0.00,,,0.00,283,Wunderground v.1.15,2013-04-07 14:34:00,
2013-04-07 09:40:00,63.9,58.3,30.06,SSE,159,1.0,1.0,82,0.00,,,0.00,635,Wunderground v.1.15,2013-04-07 14:40:00,
2013-04-07 09:45:00,64.3,58.0,30.06,SSE,153,1.0,1.0,80,0.00,,,0.00,612,Wunderground v.1.15,2013-04-07 14:45:00,
2013-04-07 09:50:00,64.8,58.5,30.06,ESE,114,1.0,1.0,80,0.00,,,0.00,529,Wunderground v.1.15,2013-04-07 14:50:00,
2013-04-07 09:56:00,65.0,58.3,30.06,SE,136,1.0,4.0,79,0.00,,,0.00,392,Wunderground v.1.15,2013-04-07 14:56:00,
2013-04-07 10:01:00,65.2,58.5,30.06,SSW,200,2.0,2.0,79,0.00,,,0.00,571,Wunderground v.1.15,2013-04-07 15:01:00,
2013-04-07 10:07:00,65.8,58.4,30.06,SW,229,0.0,3.0,77,0.00,,,0.00,496,Wunderground v.1.15,2013-04-07 15:07:00,
2013-04-07 10:13:00,66.0,58.6,30.06,SE,142,0.0,0.0,77,0.00,,,0.00,396,Wunderground v.1.15,2013-04-07 15:13:00,
2013-04-07 10:19:00,66.2,58.0,30.06,South,191,1.0,6.0,75,0.00,,,0.00,348,Wunderground v.1.15,2013-04-07 15:19:00,
2013-04-07 10:24:00,66.4,58.6,30.06,SSW,206,1.0,2.0,76,0.00,,,0.00,429,Wunderground v.1.15,2013-04-07 15:24:00,
2013-04-07 10:29:00,66.6,58.8,30.06,SE,138,0.0,2.0,76,0.00,,,0.00,394,Wunderground v.1.15,2013-04-07 15:29:00,
2013-04-07 10:35:00,66.6,58.1,30.06,SSW,198,1.0,4.0,74,0.00,,,0.00,355,Wunderground v.1.15,2013-04-07 15:35:00,
2013-04-07 10:41:00,66.8,58.2,30.06,South,187,1.0,1.0,74,0.00,,,0.00,353,Wunderground v.1.15,2013-04-07 15:41:00,
2013-04-07 10:46:00,66.7,58.1,30.06,SSW,200,1.0,1.0,74,0.00,,,0.00,394,Wunderground v.1.15,2013-04-07 15:46:00,
2013-04-07 10:52:00,66.7,58.5,30.06,SSE,160,1.0,1.0,75,0.00,,,0.00,415,Wunderground v.1.15,2013-04-07 15:52:00,
2013-04-07 10:57:00,67.1,58.9,30.06,SSW,199,1.0,1.0,75,0.00,,,0.00,385,Wunderground v.1.15,2013-04-07 15:57:00,
2013-04-07 11:03:00,67.6,58.6,30.06,SSW,197,0.0,3.0,73,0.00,,,0.00,415,Wunderground v.1.15,2013-04-07 16:03:00,
2013-04-07 11:08:00,67.5,57.8,30.06,SW,215,1.0,7.0,71,0.00,,,0.00,397,Wunderground v.1.15,2013-04-07 16:08:00,
2013-04-07 11:14:00,67.7,58.7,30.06,SE,127,2.0,2.0,73,0.00,,,0.00,469,Wunderground v.1.15,2013-04-07 16:14:00,
2013-04-07 11:20:00,68.3,58.1,30.06,SSE,158,0.0,0.0,70,0.00,,,0.00,512,Wunderground v.1.15,2013-04-07 16:20:00,
2013-04-07 11:25:00,68.6,57.6,30.06,SE,135,0.0,2.0,68,0.00,,,0.00,527,Wunderground v.1.15,2013-04-07 16:25:00,
2013-04-07 11:30:00,68.9,58.3,30.06,SSW,212,1.0,1.0,69,0.00,,,0.00,960,Wunderground v.1.15,2013-04-07 16:30:00,
2013-04-07 11:36:00,68.9,57.5,30.06,ESE,111,1.0,3.0,67,0.00,,,0.00,462,Wunderground v.1.15,2013-04-07 16:36:00,
2013-04-07 11:41:00,69.0,56.7,30.06,SE,138,1.0,3.0,65,0.00,,,0.00,403,Wunderground v.1.15,2013-04-07 16:41:00,
2013-04-07 11:47:00,69.0,57.6,30.06,SSE,147,1.0,3.0,67,0.00,,,0.00,469,Wunderground v.1.15,2013-04-07 16:47:00,
2013-04-07 11:53:00,69.2,57.8,30.06,SW,225,0.0,1.0,67,0.00,,,0.00,355,Wunderground v.1.15,2013-04-07 16:53:00,
2013-04-07 11:58:00,69.6,58.6,30.05,SSE,149,0.0,3.0,68,0.00,,,0.00,410,Wunderground v.1.15,2013-04-07 16:58:00,
2013-04-07 12:03:00,69.7,57.8,30.05,SSE,163,1.0,2.0,66,0.00,,,0.00,364,Wunderground v.1.15,2013-04-07 17:03:00,
2013-04-07 12:10:00,69.9,57.6,30.05,SSE,150,1.0,5.0,65,0.00,,,0.00,366,Wunderground v.1.15,2013-04-07 17:10:00,
2013-04-07 12:16:00,69.6,57.3,30.05,SW,215,2.0,8.0,65,0.00,,,0.00,374,Wunderground v.1.15,2013-04-07 17:16:00,
2013-04-07 12:22:00,69.6,56.4,30.05,SE,146,2.0,3.0,63,0.00,,,0.00,610,Wunderground v.1.15,2013-04-07 17:22:00,
2013-04-07 12:28:00,70.2,57.0,30.05,SSW,209,1.0,3.0,63,0.00,,,0.00,276,Wunderground v.1.15,2013-04-07 17:28:00,
2013-04-07 12:33:00,69.8,57.1,30.05,South,191,1.0,1.0,64,0.00,,,0.00,403,Wunderground v.1.15,2013-04-07 17:33:00,
2013-04-07 12:38:00,70.0,56.8,30.05,South,170,1.0,2.0,63,0.00,,,0.00,1035,Wunderground v.1.15,2013-04-07 17:38:00,
2013-04-07 12:44:00,70.7,56.6,30.04,SSW,194,1.0,7.0,61,0.00,,,0.00,1078,Wunderground v.1.15,2013-04-07 17:44:00,
2013-04-07 12:50:00,71.2,57.1,30.04,SSE,161,1.0,1.0,61,0.00,,,0.00,359,Wunderground v.1.15,2013-04-07 17:50:00,
2013-04-07 12:55:00,71.1,56.5,30.03,SE,129,1.0,7.0,60,0.00,,,0.00,420,Wunderground v.1.15,2013-04-07 17:55:00,
2013-04-07 13:00:00,71.2,57.1,30.03,South,183,2.0,2.0,61,0.00,,,0.00,355,Wunderground v.1.15,2013-04-07 18:00:00,
2013-04-07 13:06:00,71.3,56.2,30.03,SE,132,1.0,5.0,59,0.00,,,0.00,425,Wunderground v.1.15,2013-04-07 18:06:00,
2013-04-07 13:15:00,71.2,56.1,30.02,South,178,2.0,5.0,59,0.00,,,0.00,415,Wunderground v.1.15,2013-04-07 18:15:00,
2013-04-07 13:20:00,71.3,56.7,30.02,SSW,195,1.0,1.0,60,0.00,,,0.00,373,Wunderground v.1.15,2013-04-07 18:20:00,
2013-04-07 13:26:00,71.3,56.2,30.02,WSW,252,2.0,3.0,59,0.00,,,0.00,497,Wunderground v.1.15,2013-04-07 18:26:00,
2013-04-07 13:32:00,71.3,56.2,30.01,South,189,2.0,2.0,59,0.00,,,0.00,454,Wunderground v.1.15,2013-04-07 18:32:00,
2013-04-07 13:38:00,71.5,56.4,30.01,SSE,151,1.0,9.0,59,0.00,,,0.00,311,Wunderground v.1.15,2013-04-07 18:38:00,
2013-04-07 13:44:00,71.4,56.8,30.01,WSW,243,1.0,1.0,60,0.00,,,0.00,394,Wunderground v.1.15,2013-04-07 18:44:00,
2013-04-07 13:49:00,72.0,56.4,30.01,WSW,241,1.0,5.0,58,0.00,,,0.00,1069,Wunderground v.1.15,2013-04-07 18:49:00,
2013-04-07 13:54:00,72.8,56.2,30.00,WSW,241,1.0,2.0,56,0.00,,,0.00,1118,Wunderground v.1.15,2013-04-07 18:54:00,
2013-04-07 13:59:00,73.5,56.3,30.00,South,174,1.0,2.0,55,0.00,,,0.00,1165,Wunderground v.1.15,2013-04-07 18:59:00,
2013-04-07 14:05:00,72.9,56.3,30.01,SSW,200,2.0,4.0,56,0.00,,,0.00,951,Wunderground v.1.15,2013-04-07 19:05:00,
2013-04-07 14:11:00,72.6,57.0,30.01,SW,224,2.0,2.0,58,0.00,,,0.00,338,Wunderground v.1.15,2013-04-07 19:11:00,
2013-04-07 14:16:00,72.5,57.4,30.00,SSW,200,0.0,2.0,59,0.00,,,0.00,309,Wunderground v.1.15,2013-04-07 19:16:00,
2013-04-07 14:22:00,72.3,56.7,30.00,SW,215,1.0,4.0,58,0.00,,,0.00,311,Wunderground v.1.15,2013-04-07 19:22:00,
2013-04-07 14:27:00,72.1,57.0,30.00,South,183,1.0,4.0,59,0.00,,,0.00,401,Wunderground v.1.15,2013-04-07 19:27:00,
2013-04-07 14:33:00,72.2,56.6,30.00,SSW,196,1.0,4.0,58,0.00,,,0.00,1085,Wunderground v.1.15,2013-04-07 19:33:00,
2013-04-07 14:38:00,72.5,56.9,29.99,South,181,0.0,4.0,58,0.00,,,0.00,301,Wunderground v.1.15,2013-04-07 19:38:00,
2013-04-07 14:43:00,72.5,56.9,30.00,SSW,212,1.0,6.0,58,0.00,,,0.00,427,Wunderground v.1.15,2013-04-07 19:43:00,
2013-04-07 14:48:00,72.6,57.4,29.99,SE,140,1.0,6.0,59,0.00,,,0.00,1162,Wunderground v.1.15,2013-04-07 19:48:00,
2013-04-07 14:53:00,72.8,56.7,29.99,ESE,119,2.0,7.0,57,0.00,,,0.00,279,Wunderground v.1.15,2013-04-07 19:53:00,
2013-04-07 14:59:00,72.6,56.0,29.99,SSW,195,2.0,7.0,56,0.00,,,0.00,297,Wunderground v.1.15,2013-04-07 19:59:00,
2013-04-07 15:04:00,72.6,56.0,29.98,SE,142,1.0,2.0,56,0.00,,,0.00,246,Wunderground v.1.15,2013-04-07 20:04:00,
2013-04-07 15:10:00,72.5,56.4,29.98,SW,221,1.0,1.0,57,0.00,,,0.00,327,Wunderground v.1.15,2013-04-07 20:10:00,
2013-04-07 15:15:00,72.6,56.0,29.98,SW,217,1.0,3.0,56,0.00,,,0.00,352,Wunderground v.1.15,2013-04-07 20:15:00,
2013-04-07 15:21:00,73.0,57.3,29.98,South,185,0.0,5.0,58,0.00,,,0.00,900,Wunderground v.1.15,2013-04-07 20:21:00,
2013-04-07 15:26:00,73.5,56.8,29.98,SW,220,0.0,5.0,56,0.00,,,0.00,288,Wunderground v.1.15,2013-04-07 20:26:00,
2013-04-07 15:32:00,73.4,55.7,29.97,SSW,210,1.0,1.0,54,0.00,,,0.00,295,Wunderground v.1.15,2013-04-07 20:32:00,
2013-04-07 15:37:00,73.2,56.1,29.98,SSW,197,1.0,5.0,55,0.00,,,0.00,271,Wunderground v.1.15,2013-04-07 20:37:00,
2013-04-07 15:43:00,72.9,56.3,29.98,SSE,157,1.0,1.0,56,0.00,,,0.00,290,Wunderground v.1.15,2013-04-07 20:43:00,
2013-04-07 15:49:00,73.0,56.9,29.97,SE,140,1.0,3.0,57,0.00,,,0.00,868,Wunderground v.1.15,2013-04-07 20:49:00,
2013-04-07 15:57:00,73.8,56.6,29.97,SSE,151,0.0,1.0,55,0.00,,,0.00,856,Wunderground v.1.15,2013-04-07 20:57:00,
2013-04-07 16:03:00,74.3,56.6,29.97,SSW,204,0.0,2.0,54,0.00,,,0.00,271,Wunderground v.1.15,2013-04-07 21:03:00,
2013-04-07 16:08:00,74.1,56.9,29.97,SSE,154,0.0,6.0,55,0.00,,,0.00,272,Wunderground v.1.15,2013-04-07 21:08:00,
2013-04-07 16:13:00,73.9,57.7,29.97,SSE,155,0.0,0.0,57,0.00,,,0.00,253,Wunderground v.1.15,2013-04-07 21:13:00,
2013-04-07 16:19:00,73.5,56.8,29.97,South,171,1.0,8.0,56,0.00,,,0.00,267,Wunderground v.1.15,2013-04-07 21:19:00,
2013-04-07 16:25:00,73.5,57.3,29.96,ESE,119,1.0,1.0,57,0.00,,,0.00,346,Wunderground v.1.15,2013-04-07 21:25:00,
2013-04-07 16:30:00,73.4,57.7,29.97,SSE,164,0.0,0.0,58,0.00,,,0.00,185,Wunderground v.1.15,2013-04-07 21:30:00,
2013-04-07 16:37:00,73.1,57.4,29.96,SE,132,0.0,8.0,58,0.00,,,0.00,622,Wunderground v.1.15,2013-04-07 21:37:00,
2013-04-07 16:42:00,73.1,57.9,29.96,SSE,155,1.0,3.0,59,0.00,,,0.00,176,Wunderground v.1.15,2013-04-07 21:42:00,
2013-04-07 16:48:00,72.8,58.1,29.96,SSE,147,2.0,6.0,60,0.00,,,0.00,204,Wunderground v.1.15,2013-04-07 21:48:00,
2013-04-07 16:53:00,72.6,57.9,29.95,SSE,163,1.0,2.0,60,0.00,,,0.00,260,Wunderground v.1.15,2013-04-07 21:53:00,
2013-04-07 16:58:00,72.9,58.7,29.95,South,175,1.0,6.0,61,0.00,,,0.00,288,Wunderground v.1.15,2013-04-07 21:58:00,
2013-04-07 17:05:00,73.2,58.9,29.95,SSW,202,0.0,4.0,61,0.00,,,0.00,390,Wunderground v.1.15,2013-04-07 22:05:00,
2013-04-07 17:10:00,73.4,58.2,29.95,SSE,164,0.0,0.0,59,0.00,,,0.00,483,Wunderground v.1.15,2013-04-07 22:10:00,
2013-04-07 17:16:00,73.7,58.5,29.95,SSE,148,0.0,0.0,59,0.00,,,0.00,496,Wunderground v.1.15,2013-04-07 22:16:00,
2013-04-07 17:22:00,73.8,58.6,29.95,ENE,64,0.0,1.0,59,0.00,,,0.00,181,Wunderground v.1.15,2013-04-07 22:22:00,
2013-04-07 17:27:00,73.5,58.8,29.95,SSW,201,0.0,1.0,60,0.00,,,0.00,139,Wunderground v.1.15,2013-04-07 22:27:00,
2013-04-07 17:33:00,73.3,58.1,29.95,SE,131,1.0,1.0,59,0.00,,,0.00,346,Wunderground v.1.15,2013-04-07 22:33:00,
2013-04-07 17:39:00,73.4,58.7,29.94,South,189,1.0,1.0,60,0.00,,,0.00,332,Wunderground v.1.15,2013-04-07 22:39:00,
2013-04-07 17:44:00,73.2,58.9,29.94,SSW,198,1.0,1.0,61,0.00,,,0.00,69,Wunderground v.1.15,2013-04-07 22:44:00,
2013-04-07 17:51:00,72.8,59.0,29.94,South,185,0.0,1.0,62,0.00,,,0.00,265,Wunderground v.1.15,2013-04-07 22:51:00,
2013-04-07 17:58:00,72.9,59.1,29.94,SSE,167,0.0,1.0,62,0.00,,,0.00,255,Wunderground v.1.15,2013-04-07 22:58:00,
2013-04-07 18:04:00,72.8,59.0,29.94,SE,142,0.0,0.0,62,0.00,,,0.00,225,Wunderground v.1.15,2013-04-07 23:04:00,
2013-04-07 18:10:00,72.7,58.9,29.94,SW,235,0.0,0.0,62,0.00,,,0.00,200,Wunderground v.1.15,2013-04-07 23:10:00,
2013-04-07 18:15:00,72.6,58.8,29.94,South,174,0.0,0.0,62,0.00,,,0.00,171,Wunderground v.1.15,2013-04-07 23:15:00,
2013-04-07 18:21:00,72.4,59.1,29.94,South,184,1.0,1.0,63,0.00,,,0.00,149,Wunderground v.1.15,2013-04-07 23:21:00,
2013-04-07 18:27:00,72.1,59.2,29.94,South,182,0.0,1.0,64,0.00,,,0.00,118,Wunderground v.1.15,2013-04-07 23:27:00,
2013-04-07 18:32:00,71.9,59.1,29.94,SSW,206,0.0,0.0,64,0.00,,,0.00,60,Wunderground v.1.15,2013-04-07 23:32:00,
2013-04-07 18:38:00,71.5,58.7,29.94,South,178,0.0,0.0,64,0.00,,,0.00,33,Wunderground v.1.15,2013-04-07 23:38:00,
2013-04-07 18:44:00,71.1,59.2,29.94,SSW,208,0.0,0.0,66,0.00,,,0.00,19,Wunderground v.1.15,2013-04-07 23:44:00,
2013-04-07 18:49:00,70.8,58.9,29.94,SSW,213,0.0,2.0,66,0.00,,,0.00,23,Wunderground v.1.15,2013-04-07 23:49:00,
2013-04-07 18:55:00,70.4,58.9,29.94,South,181,1.0,5.0,67,0.00,,,0.00,32,Wunderground v.1.15,2013-04-07 23:55:00,
2013-04-07 19:00:00,70.2,58.7,29.94,SSE,149,0.0,0.0,67,0.00,,,0.00,35,Wunderground v.1.15,2013-04-08 00:00:00,
2013-04-07 19:06:00,69.9,58.9,29.94,SSW,196,0.0,7.0,68,0.00,,,0.00,32,Wunderground v.1.15,2013-04-08 00:06:00,
2013-04-07 19:12:00,69.7,58.7,29.94,South,183,0.0,0.0,68,0.00,,,0.00,25,Wunderground v.1.15,2013-04-08 00:12:00,
2013-04-07 19:18:00,69.5,58.9,29.94,South,181,0.0,3.0,69,0.00,,,0.00,19,Wunderground v.1.15,2013-04-08 00:18:00,
2013-04-07 19:23:00,69.3,59.1,29.94,South,171,0.0,0.0,70,0.00,,,0.00,16,Wunderground v.1.15,2013-04-08 00:23:00,
2013-04-07 19:29:00,69.0,58.8,29.94,SSE,151,0.0,2.0,70,0.00,,,0.00,7,Wunderground v.1.15,2013-04-08 00:29:00,
2013-04-07 19:34:00,68.8,58.6,29.94,SSE,156,0.0,1.0,70,0.00,,,0.00,0,Wunderground v.1.15,2013-04-08 00:34:00,
2013-04-07 19:40:00,68.6,58.8,29.94,SSE,148,0.0,0.0,71,0.00,,,0.00,0,Wunderground v.1.15,2013-04-08 00:40:00,
2013-04-07 19:46:00,68.3,58.5,29.94,SE,146,0.0,0.0,71,0.00,,,0.00,0,Wunderground v.1.15,2013-04-08 00:46:00,
2013-04-07 19:52:00,68.0,58.6,29.94,South,175,0.0,0.0,72,0.00,,,0.00,0,Wunderground v.1.15,2013-04-08 00:52:00,
2013-04-07 19:57:00,67.8,58.8,29.94,SE,136,0.0,2.0,73,0.00,,,0.00,0,Wunderground v.1.15,2013-04-08 00:57:00,
2013-04-07 20:03:00,67.5,58.5,29.94,South,171,0.0,0.0,73,0.00,,,0.00,0,Wunderground v.1.15,2013-04-08 01:03:00,
2013-04-07 20:08:00,67.3,58.3,29.94,South,179,0.0,1.0,73,0.00,,,0.00,0,Wunderground v.1.15,2013-04-08 01:08:00,
2013-04-07 20:15:00,67.0,58.4,29.95,SSW,200,0.0,0.0,74,0.00,,,0.00,0,Wunderground v.1.15,2013-04-08 01:15:00,
2013-04-07 20:20:00,66.8,58.2,29.95,SSW,202,0.0,0.0,74,0.00,,,0.00,0,Wunderground v.1.15,2013-04-08 01:20:00,
2013-04-07 20:27:00,66.5,58.3,29.95,SE,144,0.0,0.0,75,0.00,,,0.00,0,Wunderground v.1.15,2013-04-08 01:27:00,
2013-04-07 20:33:00,66.3,58.5,29.95,SSE,162,0.0,0.0,76,0.00,,,0.00,0,Wunderground v.1.15,2013-04-08 01:33:00,
2013-04-07 20:38:00,66.1,58.3,29.95,SSE,166,0.0,0.0,76,0.00,,,0.00,0,Wunderground v.1.15,2013-04-08 01:38:00,
2013-04-07 20:43:00,65.9,58.5,29.95,SSE,164,0.0,0.0,77,0.00,,,0.00,0,Wunderground v.1.15,2013-04-08 01:43:00,
2013-04-07 20:49:00,65.6,58.6,29.95,SSE,164,0.0,0.0,78,0.00,,,0.00,0,Wunderground v.1.15,2013-04-08 01:49:00,
2013-04-07 20:55:00,65.2,58.5,29.96,South,170,0.0,0.0,79,0.00,,,0.00,0,Wunderground v.1.15,2013-04-08 01:55:00,
2013-04-07 21:00:00,64.9,58.2,29.96,South,170,0.0,0.0,79,0.00,,,0.00,0,Wunderground v.1.15,2013-04-08 02:00:00,
2013-04-07 21:05:00,64.7,58.4,29.96,SSE,147,0.0,2.0,80,0.00,,,0.00,0,Wunderground v.1.15,2013-04-08 02:05:00,
2013-04-07 21:10:00,64.6,58.3,29.96,SE,146,0.0,0.0,80,0.00,,,0.00,0,Wunderground v.1.15,2013-04-08 02:10:00,
2013-04-07 21:15:00,64.4,58.4,29.96,SE,138,0.0,0.0,81,0.00,,,0.00,0,Wunderground v.1.15,2013-04-08 02:15:00,
2013-04-07 21:21:00,64.3,58.3,29.97,SSE,164,0.0,0.0,81,0.00,,,0.00,0,Wunderground v.1.15,2013-04-08 02:21:00,
2013-04-07 21:26:00,64.1,58.5,29.97,South,169,1.0,4.0,82,0.00,,,0.00,0,Wunderground v.1.15,2013-04-08 02:26:00,
2013-04-07 21:32:00,64.1,58.5,29.97,SE,136,0.0,0.0,82,0.00,,,0.00,0,Wunderground v.1.15,2013-04-08 02:32:00,
2013-04-07 21:38:00,64.0,58.7,29.97,SSE,148,0.0,1.0,83,0.00,,,0.00,0,Wunderground v.1.15,2013-04-08 02:38:00,
2013-04-07 21:44:00,63.9,59.0,29.97,SSE,148,0.0,1.0,84,0.00,,,0.00,0,Wunderground v.1.15,2013-04-08 02:44:00,
2013-04-07 21:50:00,63.8,58.9,29.97,SSE,150,0.0,0.0,84,0.00,,,0.00,0,Wunderground v.1.15,2013-04-08 02:50:00,
2013-04-07 21:57:00,63.7,59.1,29.98,South,181,1.0,1.0,85,0.00,,,0.00,0,Wunderground v.1.15,2013-04-08 02:57:00,
2013-04-07 22:03:00,63.6,59.0,29.97,SSE,154,0.0,1.0,85,0.00,,,0.00,0,Wunderground v.1.15,2013-04-08 03:03:00,
2013-04-07 22:08:00,63.5,59.2,29.97,SSE,148,0.0,2.0,86,0.00,,,0.00,0,Wunderground v.1.15,2013-04-08 03:08:00,
2013-04-07 22:14:00,63.4,59.1,29.97,SSE,156,0.0,0.0,86,0.00,,,0.00,0,Wunderground v.1.15,2013-04-08 03:14:00,
2013-04-07 22:20:00,63.3,59.4,29.97,SSE,162,1.0,1.0,87,0.00,,,0.00,0,Wunderground v.1.15,2013-04-08 03:20:00,
2013-04-07 22:25:00,63.2,59.3,29.97,ESE,120,1.0,3.0,87,0.00,,,0.00,0,Wunderground v.1.15,2013-04-08 03:25:00,
2013-04-07 22:30:00,63.1,59.5,29.97,SSE,157,1.0,1.0,88,0.00,,,0.00,0,Wunderground v.1.15,2013-04-08 03:30:00,
2013-04-07 22:36:00,63.0,59.4,29.97,South,178,1.0,5.0,88,0.00,,,0.00,0,Wunderground v.1.15,2013-04-08 03:36:00,
2013-04-07 22:42:00,63.0,59.7,29.97,SE,135,2.0,6.0,89,0.00,,,0.00,0,Wunderground v.1.15,2013-04-08 03:42:00,
2013-04-07 22:48:00,63.0,59.7,29.97,SSE,165,1.0,6.0,89,0.00,,,0.00,0,Wunderground v.1.15,2013-04-08 03:48:00,
2013-04-07 22:54:00,62.9,59.6,29.96,SSE,155,1.0,4.0,89,0.00,,,0.00,0,Wunderground v.1.15,2013-04-08 03:54:00,
2013-04-07 23:00:00,62.8,59.8,29.97,SSE,167,1.0,3.0,90,0.00,,,0.00,0,Wunderground v.1.15,2013-04-08 04:00:00,
2013-04-07 23:01:00,62.8,59.8,29.97,SSE,160,1.0,3.0,90,0.00,,,0.00,0,Wunderground v.1.15,2013-04-08 04:01:00,
2013-04-07 23:02:00,62.8,59.8,29.97,SSE,160,1.0,3.0,90,0.00,,,0.00,0,Wunderground v.1.15,2013-04-08 04:02:00,
2013-04-07 23:07:00,62.8,59.8,29.97,SE,144,1.0,3.0,90,0.00,,,0.00,0,Wunderground v.1.15,2013-04-08 04:07:00,
2013-04-07 23:13:00,62.7,60.0,29.96,South,182,1.0,1.0,91,0.00,,,0.00,0,Wunderground v.1.15,2013-04-08 04:13:00,
2013-04-07 23:18:00,62.6,59.9,29.96,SE,134,1.0,1.0,91,0.00,,,0.00,0,Wunderground v.1.15,2013-04-08 04:18:00,
2013-04-07 23:20:00,62.6,59.9,29.96,South,189,1.0,1.0,91,0.00,,,0.00,0,Wunderground v.1.15,2013-04-08 04:20:00,
2013-04-07 23:26:00,62.5,59.8,29.97,SSE,151,0.0,1.0,91,0.00,,,0.00,0,Wunderground v.1.15,2013-04-08 04:26:00,
2013-04-07 23:31:00,62.5,59.8,29.96,SSE,156,0.0,0.0,91,0.00,,,0.00,0,Wunderground v.1.15,2013-04-08 04:31:00,
2013-04-07 23:37:00,62.4,60.0,29.96,South,190,0.0,0.0,92,0.00,,,0.00,0,Wunderground v.1.15,2013-04-08 04:37:00,
2013-04-07 23:42:00,62.3,59.9,29.96,South,169,0.0,0.0,92,0.00,,,0.00,0,Wunderground v.1.15,2013-04-08 04:42:00,
2013-04-07 23:47:00,62.2,59.8,29.96,SSE,160,0.0,1.0,92,0.00,,,0.00,0,Wunderground v.1.15,2013-04-08 04:47:00,
2013-04-07 23:53:00,62.1,59.7,29.97,SE,136,0.0,0.0,92,0.00,,,0.00,0,Wunderground v.1.15,2013-04-08 04:53:00,